createdAt,value
2017-10-28T00:00:10.908Z,83.00
2017-10-28T00:02:37.114Z,82.60
2017-10-28T00:05:03.335Z,81.70
2017-10-28T00:07:29.542Z,81.40
2017-10-28T00:09:55.782Z,80.60
2017-10-28T00:12:21.977Z,79.50
2017-10-28T00:14:48.574Z,80.70
2017-10-28T00:17:16.081Z,80.70
2017-10-28T00:19:42.336Z,81.50
2017-10-28T00:22:08.548Z,82.60
2017-10-28T00:24:34.766Z,81.50
2017-10-28T00:27:00.980Z,81.60
2017-10-28T00:29:27.553Z,81.50
2017-10-28T00:31:59.753Z,81.50
2017-10-28T00:34:32.163Z,81.30
2017-10-28T00:36:58.751Z,80.60
2017-10-28T00:39:24.953Z,80.60
2017-10-28T00:41:51.232Z,80.20
2017-10-28T00:44:17.419Z,80.50
2017-10-28T00:46:43.914Z,79.90
2017-10-28T00:49:10.489Z,80.10
2017-10-28T00:51:36.722Z,80.10
2017-10-28T00:54:02.967Z,80.20
2017-10-28T00:56:29.181Z,80.30
2017-10-28T00:58:55.369Z,80.90
2017-10-28T01:01:21.573Z,80.80
2017-10-28T01:03:47.782Z,80.40
2017-10-28T01:06:14.014Z,80.70
2017-10-28T01:08:40.221Z,81.20
2017-10-28T01:11:06.508Z,81.30
2017-10-28T01:13:32.721Z,81.30
2017-10-28T01:15:59.634Z,81.40
2017-10-28T01:18:25.848Z,81.40
2017-10-28T01:20:52.065Z,81.30
2017-10-28T01:23:18.307Z,81.30
2017-10-28T01:25:44.509Z,81.10
2017-10-28T01:28:10.711Z,81.90
2017-10-28T01:30:36.928Z,81.70
2017-10-28T01:33:03.198Z,81.40
2017-10-28T01:35:29.410Z,81.60
2017-10-28T01:37:55.642Z,81.90
2017-10-28T01:40:21.895Z,82.90
2017-10-28T01:42:48.124Z,83.40
2017-10-28T01:45:14.891Z,83.60
2017-10-28T01:47:41.113Z,83.50
2017-10-28T01:50:07.299Z,82.40
2017-10-28T01:52:33.533Z,83.20
2017-10-28T01:54:59.738Z,82.70
2017-10-28T01:57:25.937Z,83.10
2017-10-28T01:59:52.117Z,83.10
2017-10-28T02:02:18.318Z,83.60
2017-10-28T02:04:44.500Z,83.70
2017-10-28T02:07:10.714Z,82.90
2017-10-28T02:09:36.970Z,82.90
2017-10-28T02:12:03.200Z,83.80
2017-10-28T02:14:30.308Z,84.30
2017-10-28T02:16:56.551Z,83.80
2017-10-28T02:19:22.829Z,83.90
2017-10-28T02:21:49.437Z,83.40
2017-10-28T02:24:15.652Z,83.40
2017-10-28T02:26:41.891Z,82.60
2017-10-28T02:29:08.119Z,83.80
2017-10-28T02:31:35.294Z,83.60
2017-10-28T02:34:01.947Z,84.10
2017-10-28T02:36:28.127Z,84.10
2017-10-28T02:38:54.342Z,83.70
2017-10-28T02:41:20.549Z,83.70
2017-10-28T02:43:46.783Z,83.90
2017-10-28T02:46:12.983Z,83.40
2017-10-28T02:48:39.196Z,82.90
2017-10-28T02:51:05.758Z,83.70
2017-10-28T02:53:31.994Z,83.70
2017-10-28T02:55:58.199Z,83.90
2017-10-28T02:58:25.314Z,84.00
2017-10-28T03:00:51.541Z,83.90
2017-10-28T03:03:17.773Z,83.20
2017-10-28T03:05:44.013Z,83.20
2017-10-28T03:08:10.606Z,82.80
2017-10-28T03:10:36.835Z,82.80
2017-10-28T03:13:03.075Z,83.80
2017-10-28T03:15:29.304Z,84.10
2017-10-28T03:17:55.603Z,84.40
2017-10-28T03:20:21.815Z,83.80
2017-10-28T03:22:48.005Z,84.10
2017-10-28T03:25:14.232Z,83.40
2017-10-28T03:27:40.460Z,83.20
2017-10-28T03:30:06.698Z,82.90
2017-10-28T03:32:32.895Z,83.20
2017-10-28T03:34:59.107Z,83.70
2017-10-28T03:37:25.314Z,83.90
2017-10-28T03:39:51.551Z,84.40
2017-10-28T03:42:17.771Z,83.20
2017-10-28T03:44:44.001Z,83.20
2017-10-28T03:47:10.217Z,82.90
2017-10-28T03:49:36.448Z,83.10
2017-10-28T03:52:02.658Z,83.60
2017-10-28T03:54:29.243Z,84.40
2017-10-28T03:56:55.431Z,84.40
2017-10-28T03:59:21.657Z,84.50
2017-10-28T04:01:47.853Z,84.20
2017-10-28T04:04:15.091Z,84.60
2017-10-28T04:06:41.289Z,85.00
2017-10-28T04:09:07.485Z,84.80
2017-10-28T04:11:33.690Z,84.10
2017-10-28T04:13:59.884Z,85.00
2017-10-28T04:16:26.086Z,84.50
2017-10-28T04:18:52.308Z,84.80
2017-10-28T04:21:18.493Z,84.20
2017-10-28T04:23:45.000Z,84.30
2017-10-28T04:26:11.259Z,83.40
2017-10-28T04:28:37.465Z,83.40
2017-10-28T04:31:03.702Z,82.90
2017-10-28T04:33:30.921Z,82.60
2017-10-28T04:35:57.161Z,82.40
2017-10-28T04:38:23.428Z,82.60
2017-10-28T04:40:49.674Z,83.20
2017-10-28T04:43:15.888Z,82.50
2017-10-28T04:45:42.084Z,82.10
2017-10-28T04:48:08.273Z,82.80
2017-10-28T04:50:34.483Z,82.20
2017-10-28T04:53:01.093Z,82.80
2017-10-28T04:55:27.334Z,82.80
2017-10-28T04:57:53.541Z,83.40
2017-10-28T05:00:19.749Z,84.10
2017-10-28T05:02:45.994Z,84.00
2017-10-28T05:05:12.203Z,83.90
2017-10-28T05:07:39.276Z,83.20
2017-10-28T05:10:05.517Z,83.60
2017-10-28T05:12:31.735Z,83.50
2017-10-28T05:14:57.982Z,83.20
2017-10-28T05:17:24.560Z,82.60
2017-10-28T05:19:50.857Z,82.50
2017-10-28T05:22:17.452Z,82.20
2017-10-28T05:24:43.710Z,82.20
2017-10-28T05:27:10.296Z,82.70
2017-10-28T05:29:36.581Z,82.70
2017-10-28T05:32:03.206Z,82.00
2017-10-28T05:34:29.433Z,82.00
2017-10-28T05:36:57.012Z,81.60
2017-10-28T05:39:23.216Z,81.30
2017-10-28T05:41:49.457Z,81.00
2017-10-28T05:44:15.680Z,80.60
2017-10-28T05:46:41.943Z,80.30
2017-10-28T05:49:08.185Z,80.80
2017-10-28T05:51:35.067Z,81.20
2017-10-28T05:54:01.306Z,81.30
2017-10-28T05:56:27.591Z,80.80
2017-10-28T05:58:53.838Z,81.60
2017-10-28T06:01:20.124Z,82.20
2017-10-28T06:03:46.768Z,83.00
2017-10-28T06:06:12.972Z,83.00
2017-10-28T06:08:39.194Z,84.10
2017-10-28T06:11:05.422Z,84.40
2017-10-28T06:13:31.651Z,83.90
2017-10-28T06:15:58.656Z,84.10
2017-10-28T06:18:24.880Z,83.70
2017-10-28T06:20:51.103Z,83.10
2017-10-28T06:23:17.314Z,82.30
2017-10-28T06:25:44.512Z,82.40
2017-10-28T06:28:10.700Z,81.70
2017-10-28T06:30:36.959Z,80.40
2017-10-28T06:33:03.163Z,80.50
2017-10-28T06:35:29.394Z,80.40
2017-10-28T06:37:55.631Z,80.90
2017-10-28T06:40:21.881Z,82.10
2017-10-28T06:42:48.093Z,82.10
2017-10-28T06:45:14.356Z,81.20
2017-10-28T06:47:40.954Z,80.50
2017-10-28T06:50:07.195Z,80.50
2017-10-28T06:52:33.412Z,80.70
2017-10-28T06:54:59.652Z,80.70
2017-10-28T06:57:26.601Z,80.80
2017-10-28T06:59:52.845Z,80.90
2017-10-28T07:02:19.113Z,81.20
2017-10-28T07:04:45.317Z,81.10
2017-10-28T07:07:11.545Z,81.20
2017-10-28T07:09:37.772Z,80.70
2017-10-28T07:12:04.014Z,81.60
2017-10-28T07:14:30.237Z,81.30
2017-10-28T07:16:56.483Z,81.30
2017-10-28T07:19:22.758Z,80.70
2017-10-28T07:21:49.020Z,80.50
2017-10-28T07:24:15.604Z,79.50
2017-10-28T07:26:41.815Z,79.50
2017-10-28T07:29:08.029Z,79.00
2017-10-28T07:31:34.279Z,79.10
2017-10-28T07:34:00.520Z,79.60
2017-10-28T07:36:26.751Z,79.50
2017-10-28T07:38:53.673Z,80.30
2017-10-28T07:41:19.911Z,80.10
2017-10-28T07:43:46.158Z,79.20
2017-10-28T07:46:12.363Z,79.10
2017-10-28T07:48:39.422Z,78.40
2017-10-28T07:51:05.630Z,78.20
2017-10-28T07:53:31.835Z,78.20
2017-10-28T07:55:59.722Z,75.70
2017-10-28T07:58:25.946Z,75.70
2017-10-28T08:00:52.189Z,75.10
2017-10-28T08:03:18.431Z,75.10
2017-10-28T08:05:44.691Z,75.50
2017-10-28T08:08:10.961Z,74.70
2017-10-28T08:10:37.237Z,74.90
2017-10-28T08:13:03.498Z,74.30
2017-10-28T08:15:29.707Z,74.60
2017-10-28T08:17:55.978Z,74.80
2017-10-28T08:20:22.211Z,73.60
2017-10-28T08:22:48.405Z,73.20
2017-10-28T08:25:15.013Z,72.50
2017-10-28T08:27:41.235Z,72.50
2017-10-28T08:30:07.493Z,72.70
2017-10-28T08:32:34.883Z,73.80
2017-10-28T08:35:01.132Z,73.80
2017-10-28T08:37:27.365Z,73.30
2017-10-28T08:39:53.629Z,73.70
2017-10-28T08:42:20.275Z,74.80
2017-10-28T08:44:46.969Z,75.00
2017-10-28T08:47:13.229Z,75.00
2017-10-28T08:49:41.147Z,76.30
2017-10-28T08:52:07.513Z,75.90
2017-10-28T08:54:33.799Z,76.10
2017-10-28T08:57:00.068Z,76.30
2017-10-28T08:59:26.297Z,75.10
2017-10-28T09:01:52.524Z,74.90
2017-10-28T09:04:19.266Z,73.50
2017-10-28T09:06:45.466Z,73.80
2017-10-28T09:09:11.713Z,73.40
2017-10-28T09:11:37.935Z,73.30
2017-10-28T09:14:04.171Z,74.90
2017-10-28T09:16:30.473Z,74.60
2017-10-28T09:18:56.746Z,74.90
2017-10-28T09:21:22.979Z,73.50
2017-10-28T09:23:49.213Z,73.80
2017-10-28T09:26:15.820Z,76.00
2017-10-28T09:28:42.038Z,76.00
2017-10-28T09:31:10.313Z,75.40
2017-10-28T09:33:36.588Z,75.80
2017-10-28T09:36:03.201Z,74.80
2017-10-28T09:38:29.463Z,74.80
2017-10-28T09:40:55.791Z,76.00
2017-10-28T09:43:22.078Z,76.30
2017-10-28T09:45:48.363Z,75.50
2017-10-28T09:48:14.594Z,75.10
2017-10-28T09:50:40.867Z,75.20
2017-10-28T09:53:07.147Z,75.70
2017-10-28T09:55:33.397Z,75.30
2017-10-28T09:57:59.624Z,75.20
2017-10-28T10:00:25.852Z,74.80
2017-10-28T10:02:52.066Z,74.50
2017-10-28T10:05:18.284Z,75.00
2017-10-28T10:07:44.541Z,75.10
2017-10-28T10:10:11.770Z,75.20
2017-10-28T10:12:38.098Z,74.00
2017-10-28T10:15:04.337Z,73.60
2017-10-28T10:17:30.612Z,72.00
2017-10-28T10:19:57.370Z,72.20
2017-10-28T10:22:23.981Z,69.70
2017-10-28T10:24:50.199Z,69.70
2017-10-28T10:27:16.430Z,67.80
2017-10-28T10:29:42.744Z,67.10
2017-10-28T10:32:08.979Z,66.00
2017-10-28T10:34:35.220Z,65.50
2017-10-28T10:37:01.454Z,65.60
2017-10-28T10:39:27.681Z,64.40
2017-10-28T10:41:53.945Z,64.10
2017-10-28T10:44:20.536Z,63.00
2017-10-28T10:46:46.786Z,63.00
2017-10-28T10:49:13.035Z,62.40
2017-10-28T10:51:39.653Z,62.20
2017-10-28T10:54:05.876Z,62.20
2017-10-28T10:56:32.103Z,60.80
2017-10-28T10:58:58.347Z,62.00
2017-10-28T11:01:25.633Z,59.30
2017-10-28T11:03:51.897Z,59.30
2017-10-28T11:06:18.120Z,57.30
2017-10-28T11:08:44.386Z,53.20
2017-10-28T11:11:11.004Z,53.80
2017-10-28T11:13:37.274Z,53.80
2017-10-28T11:16:03.581Z,53.20
2017-10-28T11:18:29.842Z,54.90
2017-10-28T11:20:56.086Z,56.00
2017-10-28T11:23:22.930Z,57.40
2017-10-28T11:25:49.153Z,58.50
2017-10-28T11:28:15.445Z,58.00
2017-10-28T11:30:42.062Z,57.30
2017-10-28T11:33:08.313Z,57.30
2017-10-28T11:35:34.913Z,57.40
2017-10-28T11:38:01.165Z,57.40
2017-10-28T11:40:27.378Z,58.80
2017-10-28T11:42:53.617Z,60.10
2017-10-28T11:45:19.863Z,58.70
2017-10-28T11:47:47.548Z,59.10
2017-10-28T11:50:15.360Z,59.10
2017-10-28T11:52:41.576Z,59.70
2017-10-28T11:55:07.821Z,60.80
2017-10-28T11:57:34.049Z,60.90
2017-10-28T12:00:00.268Z,60.40
2017-10-28T12:02:26.509Z,59.30
2017-10-28T12:04:52.745Z,57.90
2017-10-28T12:07:19.360Z,57.10
2017-10-28T12:09:45.575Z,57.10
2017-10-28T12:12:11.813Z,56.30
2017-10-28T12:14:38.037Z,57.60
2017-10-28T12:17:04.310Z,56.80
2017-10-28T12:19:30.922Z,58.80
2017-10-28T12:21:57.219Z,58.80
2017-10-28T12:24:23.441Z,57.80
2017-10-28T12:26:49.666Z,56.80
2017-10-28T12:29:15.912Z,57.60
2017-10-28T12:31:42.112Z,57.80
2017-10-28T12:34:08.311Z,58.60
2017-10-28T12:36:34.912Z,57.00
2017-10-28T12:39:01.117Z,57.00
2017-10-28T12:41:27.352Z,57.90
2017-10-28T12:43:53.588Z,57.20
2017-10-28T12:46:19.819Z,56.60
2017-10-28T12:48:46.097Z,57.50
2017-10-28T12:51:12.352Z,56.50
2017-10-28T12:53:38.594Z,58.50
2017-10-28T12:56:04.801Z,58.10
2017-10-28T12:58:32.525Z,57.20
2017-10-28T13:00:58.727Z,57.80
2017-10-28T13:03:24.979Z,59.00
2017-10-28T13:05:51.278Z,58.80
2017-10-28T13:08:17.516Z,58.70
2017-10-28T13:10:43.735Z,59.20
2017-10-28T13:13:09.980Z,59.50
2017-10-28T13:15:36.209Z,60.30
2017-10-28T13:18:02.454Z,59.70
2017-10-28T13:20:29.874Z,61.80
2017-10-28T13:22:56.104Z,61.80
2017-10-28T13:25:22.352Z,60.20
2017-10-28T13:27:48.577Z,61.40
2017-10-28T13:30:14.796Z,61.30
2017-10-28T13:32:41.060Z,60.10
2017-10-28T13:35:07.673Z,61.10
2017-10-28T13:37:33.920Z,61.20
2017-10-28T13:40:01.441Z,60.20
2017-10-28T13:42:27.692Z,60.20
2017-10-28T13:44:53.934Z,61.10
2017-10-28T13:47:20.190Z,61.50
2017-10-28T13:49:46.393Z,60.30
2017-10-28T13:52:12.986Z,61.70
2017-10-28T13:54:39.853Z,61.70
2017-10-28T13:57:06.093Z,61.30
2017-10-28T13:59:32.293Z,61.10
2017-10-28T14:01:58.520Z,61.40
2017-10-28T14:04:24.773Z,61.40
2017-10-28T14:06:51.006Z,61.80
2017-10-28T14:09:17.209Z,61.90
2017-10-28T14:11:44.402Z,62.20
2017-10-28T14:14:10.650Z,62.40
2017-10-28T14:16:36.912Z,63.40
2017-10-28T14:19:03.217Z,62.10
2017-10-28T14:21:29.431Z,63.00
2017-10-28T14:23:55.661Z,62.00
2017-10-28T14:26:21.872Z,62.70
2017-10-28T14:28:48.101Z,63.40
2017-10-28T14:31:14.338Z,63.20
2017-10-28T14:33:40.594Z,62.80
2017-10-28T14:36:06.820Z,62.60
2017-10-28T14:38:33.093Z,62.90
2017-10-28T14:40:59.688Z,62.50
2017-10-28T14:43:25.956Z,62.50
2017-10-28T14:45:53.503Z,62.70
